sensor_id;sensor_type;location;lat;lon;timestamp;pressure;altitude;pressure_sealevel;temperature;humidity
34696;BME280;20918;51.138;17.370;2023-04-24T00:00:45;99188.40;;;11.70;76.62
34696;BME280;20918;51.138;17.370;2023-04-24T00:03:48;99181.96;;;11.66;76.65
34696;BME280;20918;51.138;17.370;2023-04-24T00:06:48;99175.70;;;11.65;76.83
34696;BME280;20918;51.138;17.370;2023-04-24T00:09:54;99175.14;;;11.63;76.94
34696;BME280;20918;51.138;17.370;2023-04-24T00:12:58;99170.35;;;11.63;76.95
34696;BME280;20918;51.138;17.370;2023-04-24T00:15:59;99166.49;;;11.62;77.04
34696;BME280;20918;51.138;17.370;2023-04-24T00:18:59;99161.02;;;11.62;77.09
34696;BME280;20918;51.138;17.370;2023-04-24T00:22:02;99156.76;;;11.62;77.22
34696;BME280;20918;51.138;17.370;2023-04-24T00:25:03;99156.65;;;11.64;77.35
34696;BME280;20918;51.138;17.370;2023-04-24T00:28:04;99150.48;;;11.67;77.25
34696;BME280;20918;51.138;17.370;2023-04-24T00:31:05;99146.33;;;11.68;77.24
34696;BME280;20918;51.138;17.370;2023-04-24T00:34:11;99140.54;;;11.69;77.30
34696;BME280;20918;51.138;17.370;2023-04-24T00:37:13;99137.27;;;11.71;77.23
34696;BME280;20918;51.138;17.370;2023-04-24T00:40:13;99133.12;;;11.74;77.20
34696;BME280;20918;51.138;17.370;2023-04-24T00:43:14;99133.38;;;11.78;77.18
34696;BME280;20918;51.138;17.370;2023-04-24T00:46:16;99129.55;;;11.83;77.20
34696;BME280;20918;51.138;17.370;2023-04-24T00:49:23;99122.63;;;11.85;77.06
34696;BME280;20918;51.138;17.370;2023-04-24T00:52:25;99120.81;;;11.90;77.08
34696;BME280;20918;51.138;17.370;2023-04-24T00:55:28;99120.66;;;11.94;77.10
34696;BME280;20918;51.138;17.370;2023-04-24T00:58:29;99123.33;;;11.98;77.13
34696;BME280;20918;51.138;17.370;2023-04-24T01:01:31;99123.63;;;12.04;77.10
34696;BME280;20918;51.138;17.370;2023-04-24T01:04:33;99126.13;;;12.09;77.14
34696;BME280;20918;51.138;17.370;2023-04-24T01:07:34;99124.11;;;12.14;77.04
34696;BME280;20918;51.138;17.370;2023-04-24T01:10:36;99123.63;;;12.18;76.97
34696;BME280;20918;51.138;17.370;2023-04-24T01:13:39;99123.89;;;12.22;76.89
34696;BME280;20918;51.138;17.370;2023-04-24T01:16:40;99121.31;;;12.25;76.75
34696;BME280;20918;51.138;17.370;2023-04-24T01:19:42;99116.52;;;12.28;76.67
34696;BME280;20918;51.138;17.370;2023-04-24T01:22:45;99119.06;;;12.29;76.56
34696;BME280;20918;51.138;17.370;2023-04-24T01:25:46;99119.55;;;12.25;76.54
34696;BME280;20918;51.138;17.370;2023-04-24T01:28:48;99121.52;;;12.21;76.62
34696;BME280;20918;51.138;17.370;2023-04-24T01:31:49;99123.71;;;12.17;76.70
34696;BME280;20918;51.138;17.370;2023-04-24T01:34:51;99126.16;;;12.13;76.79
34696;BME280;20918;51.138;17.370;2023-04-24T01:37:55;99123.04;;;12.09;76.84
34696;BME280;20918;51.138;17.370;2023-04-24T01:41:01;99123.10;;;12.05;76.93
34696;BME280;20918;51.138;17.370;2023-04-24T01:44:02;99118.02;;;12.02;76.92
34696;BME280;20918;51.138;17.370;2023-04-24T01:47:05;99112.33;;;11.97;76.95
34696;BME280;20918;51.138;17.370;2023-04-24T01:50:06;99111.23;;;11.90;76.98
34696;BME280;20918;51.138;17.370;2023-04-24T01:53:07;99109.49;;;11.87;77.15
34696;BME280;20918;51.138;17.370;2023-04-24T01:56:11;99106.73;;;11.84;77.14
34696;BME280;20918;51.138;17.370;2023-04-24T01:59:16;99105.42;;;11.83;77.26
34696;BME280;20918;51.138;17.370;2023-04-24T02:02:18;99101.70;;;11.81;77.26
34696;BME280;20918;51.138;17.370;2023-04-24T02:05:31;99097.92;;;11.82;77.36
34696;BME280;20918;51.138;17.370;2023-04-24T02:08:32;99091.52;;;11.85;77.36
34696;BME280;20918;51.138;17.370;2023-04-24T02:11:39;99089.48;;;11.85;77.33
34696;BME280;20918;51.138;17.370;2023-04-24T02:14:46;99089.02;;;11.86;77.37
34696;BME280;20918;51.138;17.370;2023-04-24T02:17:47;99086.58;;;11.87;77.38
34696;BME280;20918;51.138;17.370;2023-04-24T02:20:58;99084.21;;;11.89;77.34
34696;BME280;20918;51.138;17.370;2023-04-24T02:24:09;99081.32;;;11.91;77.28
34696;BME280;20918;51.138;17.370;2023-04-24T02:27:11;99077.36;;;11.95;77.23
34696;BME280;20918;51.138;17.370;2023-04-24T02:30:12;99075.52;;;11.98;77.15
34696;BME280;20918;51.138;17.370;2023-04-24T02:33:15;99071.23;;;12.00;77.10
34696;BME280;20918;51.138;17.370;2023-04-24T02:36:16;99072.19;;;12.04;77.11
34696;BME280;20918;51.138;17.370;2023-04-24T02:39:27;99068.54;;;12.07;76.96
34696;BME280;20918;51.138;17.370;2023-04-24T02:42:30;99066.18;;;12.12;76.80
34696;BME280;20918;51.138;17.370;2023-04-24T02:45:31;99064.63;;;12.16;76.63
34696;BME280;20918;51.138;17.370;2023-04-24T02:48:34;99068.48;;;12.19;76.63
34696;BME280;20918;51.138;17.370;2023-04-24T02:51:40;99067.98;;;12.21;76.60
34696;BME280;20918;51.138;17.370;2023-04-24T02:54:41;99066.40;;;12.23;76.52
34696;BME280;20918;51.138;17.370;2023-04-24T02:57:43;99061.29;;;12.24;76.47
34696;BME280;20918;51.138;17.370;2023-04-24T03:00:44;99062.07;;;12.26;76.20
34696;BME280;20918;51.138;17.370;2023-04-24T03:03:45;99066.00;;;12.28;76.13
34696;BME280;20918;51.138;17.370;2023-04-24T03:06:48;99063.05;;;12.29;75.99
34696;BME280;20918;51.138;17.370;2023-04-24T03:10:00;99057.77;;;12.29;75.92
34696;BME280;20918;51.138;17.370;2023-04-24T03:13:01;99056.24;;;12.27;76.04
34696;BME280;20918;51.138;17.370;2023-04-24T03:16:11;99051.14;;;12.25;75.92
34696;BME280;20918;51.138;17.370;2023-04-24T03:19:32;99044.98;;;12.25;75.97
34696;BME280;20918;51.138;17.370;2023-04-24T03:22:40;99043.44;;;12.24;75.93
34696;BME280;20918;51.138;17.370;2023-04-24T03:26:12;99044.59;;;12.24;76.00
34696;BME280;20918;51.138;17.370;2023-04-24T03:29:25;99049.29;;;12.23;75.96
34696;BME280;20918;51.138;17.370;2023-04-24T03:32:26;99049.38;;;12.20;75.95
34696;BME280;20918;51.138;17.370;2023-04-24T03:35:52;99047.81;;;12.17;76.02
34696;BME280;20918;51.138;17.370;2023-04-24T03:38:55;99049.24;;;12.12;76.18
34696;BME280;20918;51.138;17.370;2023-04-24T03:42:00;99052.18;;;12.09;76.26
34696;BME280;20918;51.138;17.370;2023-04-24T03:45:10;99048.86;;;12.07;76.18
34696;BME280;20918;51.138;17.370;2023-04-24T03:48:11;99051.85;;;12.05;76.38
34696;BME280;20918;51.138;17.370;2023-04-24T03:51:12;99052.91;;;12.02;76.42
34696;BME280;20918;51.138;17.370;2023-04-24T03:54:15;99055.84;;;11.99;76.47
34696;BME280;20918;51.138;17.370;2023-04-24T03:57:23;99053.34;;;11.96;76.52
34696;BME280;20918;51.138;17.370;2023-04-24T04:00:35;99049.98;;;11.94;76.61
34696;BME280;20918;51.138;17.370;2023-04-24T04:04:06;99056.29;;;11.94;76.74
34696;BME280;20918;51.138;17.370;2023-04-24T04:07:09;99055.34;;;11.92;76.69
34696;BME280;20918;51.138;17.370;2023-04-24T04:10:11;99060.21;;;11.93;76.79
34696;BME280;20918;51.138;17.370;2023-04-24T04:13:12;99061.10;;;11.93;76.72
34696;BME280;20918;51.138;17.370;2023-04-24T04:16:13;99061.02;;;11.92;76.77
34696;BME280;20918;51.138;17.370;2023-04-24T04:19:14;99061.73;;;11.93;76.80
34696;BME280;20918;51.138;17.370;2023-04-24T04:22:16;99061.16;;;11.95;76.75
34696;BME280;20918;51.138;17.370;2023-04-24T04:25:30;99062.10;;;11.97;76.58
34696;BME280;20918;51.138;17.370;2023-04-24T04:28:33;99067.50;;;11.99;76.52
34696;BME280;20918;51.138;17.370;2023-04-24T04:31:35;99079.98;;;12.00;76.61
34696;BME280;20918;51.138;17.370;2023-04-24T04:34:41;99084.72;;;11.96;76.72
34696;BME280;20918;51.138;17.370;2023-04-24T04:37:42;99082.86;;;11.93;76.73
34696;BME280;20918;51.138;17.370;2023-04-24T04:41:23;99078.05;;;11.92;76.72
34696;BME280;20918;51.138;17.370;2023-04-24T04:44:43;99076.33;;;11.93;76.67
34696;BME280;20918;51.138;17.370;2023-04-24T04:47:52;99078.58;;;11.95;76.68
34696;BME280;20918;51.138;17.370;2023-04-24T04:51:03;99080.91;;;11.98;76.69
34696;BME280;20918;51.138;17.370;2023-04-24T04:54:15;99079.61;;;12.00;76.66
34696;BME280;20918;51.138;17.370;2023-04-24T04:57:29;99080.47;;;12.03;76.53
34696;BME280;20918;51.138;17.370;2023-04-24T05:00:31;99080.73;;;12.08;76.35
34696;BME280;20918;51.138;17.370;2023-04-24T05:03:36;99081.52;;;12.14;76.45
34696;BME280;20918;51.138;17.370;2023-04-24T05:06:40;99078.13;;;12.20;76.41
34696;BME280;20918;51.138;17.370;2023-04-24T05:09:44;99082.27;;;12.24;76.21
34696;BME280;20918;51.138;17.370;2023-04-24T05:12:45;99083.50;;;12.31;75.91
34696;BME280;20918;51.138;17.370;2023-04-24T05:15:57;99085.77;;;12.38;75.16
34696;BME280;20918;51.138;17.370;2023-04-24T05:18:58;99083.48;;;12.45;74.73
34696;BME280;20918;51.138;17.370;2023-04-24T05:22:03;99085.33;;;12.52;74.45
34696;BME280;20918;51.138;17.370;2023-04-24T05:25:07;99082.17;;;12.59;73.93
34696;BME280;20918;51.138;17.370;2023-04-24T05:28:36;99082.79;;;12.67;73.66
34696;BME280;20918;51.138;17.370;2023-04-24T05:31:41;99083.43;;;12.73;73.62
34696;BME280;20918;51.138;17.370;2023-04-24T05:34:42;99081.30;;;12.77;73.48
34696;BME280;20918;51.138;17.370;2023-04-24T05:37:51;99081.42;;;12.80;73.37
34696;BME280;20918;51.138;17.370;2023-04-24T05:40:56;99080.81;;;12.82;73.35
34696;BME280;20918;51.138;17.370;2023-04-24T05:44:00;99083.14;;;12.83;73.13
34696;BME280;20918;51.138;17.370;2023-04-24T05:47:01;99084.45;;;12.85;72.91
34696;BME280;20918;51.138;17.370;2023-04-24T05:50:11;99083.95;;;12.90;72.80
34696;BME280;20918;51.138;17.370;2023-04-24T05:53:12;99082.77;;;12.96;72.68
34696;BME280;20918;51.138;17.370;2023-04-24T05:56:18;99079.84;;;13.04;72.50
34696;BME280;20918;51.138;17.370;2023-04-24T05:59:20;99081.21;;;13.09;72.27
34696;BME280;20918;51.138;17.370;2023-04-24T06:02:21;99074.89;;;13.14;72.09
34696;BME280;20918;51.138;17.370;2023-04-24T06:05:22;99073.75;;;13.16;71.87
34696;BME280;20918;51.138;17.370;2023-04-24T06:08:27;99075.75;;;13.18;72.32
34696;BME280;20918;51.138;17.370;2023-04-24T06:11:27;99075.36;;;13.19;71.93
34696;BME280;20918;51.138;17.370;2023-04-24T06:18:44;99080.13;;;13.21;71.84
34696;BME280;20918;51.138;17.370;2023-04-24T06:21:55;99079.34;;;13.20;71.54
34696;BME280;20918;51.138;17.370;2023-04-24T06:24:58;99081.47;;;13.22;71.65
34696;BME280;20918;51.138;17.370;2023-04-24T06:27:59;99081.02;;;13.25;71.56
34696;BME280;20918;51.138;17.370;2023-04-24T06:34:27;99080.92;;;13.36;70.70
34696;BME280;20918;51.138;17.370;2023-04-24T06:37:30;99082.38;;;13.42;70.38
34696;BME280;20918;51.138;17.370;2023-04-24T06:40:41;99079.86;;;13.49;70.08
34696;BME280;20918;51.138;17.370;2023-04-24T06:43:53;99079.63;;;13.59;70.07
34696;BME280;20918;51.138;17.370;2023-04-24T06:47:02;99076.23;;;13.68;69.79
34696;BME280;20918;51.138;17.370;2023-04-24T06:50:10;99076.41;;;13.77;69.41
34696;BME280;20918;51.138;17.370;2023-04-24T07:00:09;99068.77;;;14.00;68.52
34696;BME280;20918;51.138;17.370;2023-04-24T07:03:13;99070.89;;;14.05;67.95
34696;BME280;20918;51.138;17.370;2023-04-24T07:10:20;99074.31;;;14.16;67.72
34696;BME280;20918;51.138;17.370;2023-04-24T07:13:44;99076.70;;;14.21;67.34
34696;BME280;20918;51.138;17.370;2023-04-24T07:16:45;99074.86;;;14.25;66.95
34696;BME280;20918;51.138;17.370;2023-04-24T07:27:13;99074.02;;;14.28;66.38
34696;BME280;20918;51.138;17.370;2023-04-24T07:30:22;99077.22;;;14.28;66.66
34696;BME280;20918;51.138;17.370;2023-04-24T07:38:07;99079.00;;;14.33;66.58
34696;BME280;20918;51.138;17.370;2023-04-24T07:41:14;99081.09;;;14.34;66.25
34696;BME280;20918;51.138;17.370;2023-04-24T07:44:40;99082.51;;;14.30;65.88
34696;BME280;20918;51.138;17.370;2023-04-24T07:47:54;99088.80;;;14.29;66.27
34696;BME280;20918;51.138;17.370;2023-04-24T07:50:57;99092.75;;;14.33;66.33
34696;BME280;20918;51.138;17.370;2023-04-24T07:54:11;99098.27;;;14.35;66.26
34696;BME280;20918;51.138;17.370;2023-04-24T07:57:16;99092.29;;;14.37;66.13
34696;BME280;20918;51.138;17.370;2023-04-24T08:00:57;99088.92;;;14.39;66.12
34696;BME280;20918;51.138;17.370;2023-04-24T08:04:00;99088.50;;;14.49;66.33
34696;BME280;20918;51.138;17.370;2023-04-24T08:07:05;99086.75;;;14.66;66.24
34696;BME280;20918;51.138;17.370;2023-04-24T08:10:10;99087.64;;;14.81;66.05
34696;BME280;20918;51.138;17.370;2023-04-24T08:13:23;99082.65;;;14.92;66.07
34696;BME280;20918;51.138;17.370;2023-04-24T08:16:24;99076.74;;;15.07;66.15
34696;BME280;20918;51.138;17.370;2023-04-24T08:19:28;99074.30;;;15.24;65.90
34696;BME280;20918;51.138;17.370;2023-04-24T08:22:29;99083.20;;;15.41;65.42
34696;BME280;20918;51.138;17.370;2023-04-24T08:25:31;99088.87;;;15.67;65.24
34696;BME280;20918;51.138;17.370;2023-04-24T08:28:31;99085.79;;;16.13;64.44
34696;BME280;20918;51.138;17.370;2023-04-24T08:31:32;99086.38;;;16.62;63.64
34696;BME280;20918;51.138;17.370;2023-04-24T08:34:35;99082.70;;;16.98;63.12
34696;BME280;20918;51.138;17.370;2023-04-24T08:37:37;99083.80;;;17.48;63.32
34696;BME280;20918;51.138;17.370;2023-04-24T08:40:50;99078.86;;;18.08;62.54
34696;BME280;20918;51.138;17.370;2023-04-24T08:44:01;99080.14;;;18.53;61.51
34696;BME280;20918;51.138;17.370;2023-04-24T08:51:07;99086.46;;;18.62;59.41
34696;BME280;20918;51.138;17.370;2023-04-24T08:54:23;99086.71;;;18.51;58.99
34696;BME280;20918;51.138;17.370;2023-04-24T08:57:28;99084.34;;;18.38;58.87
34696;BME280;20918;51.138;17.370;2023-04-24T09:00:33;99083.42;;;18.22;58.30
34696;BME280;20918;51.138;17.370;2023-04-24T09:03:58;99081.48;;;18.17;58.13
34696;BME280;20918;51.138;17.370;2023-04-24T09:07:33;99083.95;;;18.46;58.12
34696;BME280;20918;51.138;17.370;2023-04-24T09:10:40;99079.82;;;18.75;57.71
34696;BME280;20918;51.138;17.370;2023-04-24T09:13:53;99075.20;;;18.66;56.97
34696;BME280;20918;51.138;17.370;2023-04-24T09:17:00;99076.04;;;18.52;56.86
34696;BME280;20918;51.138;17.370;2023-04-24T09:20:34;99069.39;;;18.79;56.87
34696;BME280;20918;51.138;17.370;2023-04-24T09:24:29;99072.99;;;19.28;56.66
34696;BME280;20918;51.138;17.370;2023-04-24T09:28:06;99070.50;;;19.49;55.53
34696;BME280;20918;51.138;17.370;2023-04-24T09:31:18;99069.24;;;19.72;55.04
34696;BME280;20918;51.138;17.370;2023-04-24T09:35:11;99064.08;;;19.85;54.31
34696;BME280;20918;51.138;17.370;2023-04-24T09:42:38;99058.58;;;19.72;52.16
34696;BME280;20918;51.138;17.370;2023-04-24T09:45:56;99056.94;;;19.60;53.16
34696;BME280;20918;51.138;17.370;2023-04-24T09:53:26;99043.84;;;20.20;52.09
34696;BME280;20918;51.138;17.370;2023-04-24T09:56:33;99041.08;;;20.50;51.44
34696;BME280;20918;51.138;17.370;2023-04-24T10:00:00;99035.92;;;20.64;50.48
34696;BME280;20918;51.138;17.370;2023-04-24T10:03:31;99034.98;;;20.66;50.27
34696;BME280;20918;51.138;17.370;2023-04-24T10:06:45;99028.08;;;20.76;49.67
34696;BME280;20918;51.138;17.370;2023-04-24T10:09:51;99020.43;;;20.85;50.16
34696;BME280;20918;51.138;17.370;2023-04-24T10:13:01;99014.21;;;20.93;49.33
34696;BME280;20918;51.138;17.370;2023-04-24T10:16:05;99016.39;;;20.72;48.89
34696;BME280;20918;51.138;17.370;2023-04-24T10:19:16;99022.90;;;20.42;49.02
34696;BME280;20918;51.138;17.370;2023-04-24T10:22:40;99025.54;;;20.15;48.59
34696;BME280;20918;51.138;17.370;2023-04-24T10:25:52;99026.36;;;19.94;49.01
34696;BME280;20918;51.138;17.370;2023-04-24T10:29:23;99026.77;;;20.02;49.67
34696;BME280;20918;51.138;17.370;2023-04-24T10:32:24;99024.17;;;20.52;49.96
34696;BME280;20918;51.138;17.370;2023-04-24T10:39:51;99019.17;;;21.26;48.75
34696;BME280;20918;51.138;17.370;2023-04-24T10:46:59;99023.90;;;21.32;47.58
34696;BME280;20918;51.138;17.370;2023-04-24T10:53:51;99012.90;;;21.41;46.57
34696;BME280;20918;51.138;17.370;2023-04-24T10:57:36;99011.91;;;21.38;46.12
34696;BME280;20918;51.138;17.370;2023-04-24T11:00:57;99016.27;;;21.15;46.63
34696;BME280;20918;51.138;17.370;2023-04-24T11:04:06;99018.39;;;20.96;46.68
34696;BME280;20918;51.138;17.370;2023-04-24T11:07:20;99020.39;;;20.71;46.80
34696;BME280;20918;51.138;17.370;2023-04-24T11:10:47;99030.89;;;20.37;47.14
34696;BME280;20918;51.138;17.370;2023-04-24T11:14:22;99025.66;;;20.17;47.48
34696;BME280;20918;51.138;17.370;2023-04-24T11:17:37;99027.70;;;19.98;48.02
34696;BME280;20918;51.138;17.370;2023-04-24T11:20:44;99028.98;;;19.71;48.34
34696;BME280;20918;51.138;17.370;2023-04-24T11:23:57;99026.61;;;19.44;48.80
34696;BME280;20918;51.138;17.370;2023-04-24T11:27:13;99024.92;;;19.34;49.37
34696;BME280;20918;51.138;17.370;2023-04-24T11:30:23;99028.80;;;19.65;49.98
34696;BME280;20918;51.138;17.370;2023-04-24T11:33:37;99030.86;;;19.93;49.73
34696;BME280;20918;51.138;17.370;2023-04-24T11:36:44;99029.73;;;19.92;49.18
34696;BME280;20918;51.138;17.370;2023-04-24T11:39:50;99030.89;;;19.83;49.66
34696;BME280;20918;51.138;17.370;2023-04-24T11:43:09;99029.77;;;19.66;49.49
34696;BME280;20918;51.138;17.370;2023-04-24T11:46:56;99030.51;;;19.38;49.74
34696;BME280;20918;51.138;17.370;2023-04-24T11:50:45;99037.86;;;19.02;49.74
34696;BME280;20918;51.138;17.370;2023-04-24T11:53:47;99039.17;;;18.62;50.11
34696;BME280;20918;51.138;17.370;2023-04-24T11:57:24;99037.39;;;18.40;50.55
34696;BME280;20918;51.138;17.370;2023-04-24T12:04:18;99036.36;;;18.23;51.38
34696;BME280;20918;51.138;17.370;2023-04-24T12:07:21;99034.81;;;18.21;51.54
34696;BME280;20918;51.138;17.370;2023-04-24T12:10:24;99037.27;;;18.10;51.64
34696;BME280;20918;51.138;17.370;2023-04-24T12:13:28;99035.23;;;17.99;51.79
34696;BME280;20918;51.138;17.370;2023-04-24T12:16:36;99035.98;;;17.93;52.22
34696;BME280;20918;51.138;17.370;2023-04-24T12:20:04;99037.13;;;17.82;52.75
34696;BME280;20918;51.138;17.370;2023-04-24T12:23:06;99043.82;;;17.77;53.37
34696;BME280;20918;51.138;17.370;2023-04-24T12:26:06;99042.80;;;17.65;53.53
34696;BME280;20918;51.138;17.370;2023-04-24T12:29:07;99039.10;;;17.48;54.08
34696;BME280;20918;51.138;17.370;2023-04-24T12:32:16;99042.45;;;17.42;54.39
34696;BME280;20918;51.138;17.370;2023-04-24T12:35:40;99047.08;;;17.24;54.78
34696;BME280;20918;51.138;17.370;2023-04-24T12:38:47;99050.14;;;17.02;55.09
34696;BME280;20918;51.138;17.370;2023-04-24T12:41:56;99047.23;;;16.87;55.32
34696;BME280;20918;51.138;17.370;2023-04-24T12:45:04;99044.23;;;16.78;55.55
34696;BME280;20918;51.138;17.370;2023-04-24T12:48:08;99039.80;;;16.68;55.69
34696;BME280;20918;51.138;17.370;2023-04-24T12:51:18;99036.79;;;16.63;55.94
34696;BME280;20918;51.138;17.370;2023-04-24T12:54:38;99035.90;;;16.57;56.34
34696;BME280;20918;51.138;17.370;2023-04-24T12:57:39;99037.44;;;16.49;56.64
34696;BME280;20918;51.138;17.370;2023-04-24T13:00:43;99034.33;;;16.42;57.07
34696;BME280;20918;51.138;17.370;2023-04-24T13:03:46;99035.93;;;16.40;57.45
34696;BME280;20918;51.138;17.370;2023-04-24T13:06:47;99030.86;;;16.31;57.60
34696;BME280;20918;51.138;17.370;2023-04-24T13:09:52;99027.89;;;16.15;57.92
34696;BME280;20918;51.138;17.370;2023-04-24T13:12:56;99021.24;;;16.00;58.00
34696;BME280;20918;51.138;17.370;2023-04-24T13:15:57;99020.73;;;15.78;58.07
34696;BME280;20918;51.138;17.370;2023-04-24T13:18:58;99021.71;;;15.52;58.57
34696;BME280;20918;51.138;17.370;2023-04-24T13:22:02;99017.15;;;15.36;59.60
34696;BME280;20918;51.138;17.370;2023-04-24T13:25:09;99010.59;;;15.23;60.26
34696;BME280;20918;51.138;17.370;2023-04-24T13:28:13;99011.55;;;15.16;60.39
34696;BME280;20918;51.138;17.370;2023-04-24T13:31:14;99008.26;;;15.09;60.82
34696;BME280;20918;51.138;17.370;2023-04-24T13:34:18;99009.05;;;14.97;60.92
34696;BME280;20918;51.138;17.370;2023-04-24T13:37:19;99010.25;;;14.84;61.24
34696;BME280;20918;51.138;17.370;2023-04-24T13:40:29;99009.42;;;14.76;61.54
34696;BME280;20918;51.138;17.370;2023-04-24T13:43:33;99009.77;;;14.75;61.92
34696;BME280;20918;51.138;17.370;2023-04-24T13:46:34;99011.19;;;14.69;62.32
34696;BME280;20918;51.138;17.370;2023-04-24T13:49:35;99008.38;;;14.62;62.87
34696;BME280;20918;51.138;17.370;2023-04-24T13:52:36;99003.37;;;14.56;63.38
34696;BME280;20918;51.138;17.370;2023-04-24T13:55:37;99003.02;;;14.51;63.60
34696;BME280;20918;51.138;17.370;2023-04-24T13:58:39;98998.30;;;14.50;63.91
34696;BME280;20918;51.138;17.370;2023-04-24T14:01:43;99000.61;;;14.49;64.38
34696;BME280;20918;51.138;17.370;2023-04-24T14:04:45;98998.68;;;14.50;64.64
34696;BME280;20918;51.138;17.370;2023-04-24T14:07:47;99000.95;;;14.56;65.04
34696;BME280;20918;51.138;17.370;2023-04-24T14:10:51;99001.82;;;14.65;65.22
34696;BME280;20918;51.138;17.370;2023-04-24T14:13:53;99003.02;;;14.71;65.60
34696;BME280;20918;51.138;17.370;2023-04-24T14:17:00;99002.35;;;14.78;66.01
34696;BME280;20918;51.138;17.370;2023-04-24T14:20:33;99000.40;;;14.87;66.17
34696;BME280;20918;51.138;17.370;2023-04-24T14:23:39;99004.65;;;15.00;66.21
34696;BME280;20918;51.138;17.370;2023-04-24T14:26:51;99007.66;;;15.11;66.85
34696;BME280;20918;51.138;17.370;2023-04-24T14:29:59;99008.79;;;15.05;67.44
34696;BME280;20918;51.138;17.370;2023-04-24T14:33:10;99009.39;;;14.91;67.14
34696;BME280;20918;51.138;17.370;2023-04-24T14:36:25;99012.71;;;14.88;67.22
34696;BME280;20918;51.138;17.370;2023-04-24T14:39:29;99014.37;;;14.86;66.94
34696;BME280;20918;51.138;17.370;2023-04-24T14:42:36;99016.05;;;14.84;66.57
34696;BME280;20918;51.138;17.370;2023-04-24T14:45:51;99012.44;;;14.88;66.38
34696;BME280;20918;51.138;17.370;2023-04-24T14:52:39;99017.17;;;14.82;65.99
34696;BME280;20918;51.138;17.370;2023-04-24T14:55:47;99018.83;;;14.85;66.09
34696;BME280;20918;51.138;17.370;2023-04-24T14:59:09;99014.86;;;14.95;66.05
34696;BME280;20918;51.138;17.370;2023-04-24T15:02:12;99017.17;;;15.05;65.80
34696;BME280;20918;51.138;17.370;2023-04-24T15:05:19;99019.28;;;15.08;65.25
34696;BME280;20918;51.138;17.370;2023-04-24T15:11:56;99022.59;;;14.98;64.42
34696;BME280;20918;51.138;17.370;2023-04-24T15:15:18;99020.58;;;14.95;64.45
34696;BME280;20918;51.138;17.370;2023-04-24T15:22:04;99029.52;;;14.84;63.65
34696;BME280;20918;51.138;17.370;2023-04-24T15:25:09;99031.58;;;14.79;63.58
34696;BME280;20918;51.138;17.370;2023-04-24T15:28:29;99035.13;;;14.73;63.70
34696;BME280;20918;51.138;17.370;2023-04-24T15:34:47;99032.13;;;14.48;63.63
34696;BME280;20918;51.138;17.370;2023-04-24T15:37:51;99030.89;;;14.39;63.76
34696;BME280;20918;51.138;17.370;2023-04-24T15:40:52;99032.02;;;14.30;63.84
34696;BME280;20918;51.138;17.370;2023-04-24T15:43:53;99032.63;;;14.19;64.19
34696;BME280;20918;51.138;17.370;2023-04-24T15:46:55;99032.46;;;14.09;64.52
34696;BME280;20918;51.138;17.370;2023-04-24T15:49:57;99038.69;;;13.99;64.73
34696;BME280;20918;51.138;17.370;2023-04-24T15:56:31;99037.08;;;13.79;65.54
34696;BME280;20918;51.138;17.370;2023-04-24T15:59:32;99035.95;;;13.66;65.83
34696;BME280;20918;51.138;17.370;2023-04-24T16:02:32;99035.13;;;13.53;66.07
34696;BME280;20918;51.138;17.370;2023-04-24T16:05:34;99036.13;;;13.39;66.22
34696;BME280;20918;51.138;17.370;2023-04-24T16:08:35;99041.56;;;13.31;66.51
34696;BME280;20918;51.138;17.370;2023-04-24T16:11:35;99038.91;;;13.21;66.99
34696;BME280;20918;51.138;17.370;2023-04-24T16:14:39;99040.01;;;13.09;67.47
34696;BME280;20918;51.138;17.370;2023-04-24T16:17:40;99037.48;;;12.99;68.14
34696;BME280;20918;51.138;17.370;2023-04-24T16:20:40;99036.23;;;12.89;68.86
34696;BME280;20918;51.138;17.370;2023-04-24T16:23:45;99036.71;;;12.79;69.41
34696;BME280;20918;51.138;17.370;2023-04-24T16:26:46;99033.90;;;12.66;69.66
34696;BME280;20918;51.138;17.370;2023-04-24T16:29:53;99039.23;;;12.52;70.06
34696;BME280;20918;51.138;17.370;2023-04-24T16:32:54;99041.95;;;12.41;70.77
34696;BME280;20918;51.138;17.370;2023-04-24T16:35:54;99048.16;;;12.29;70.88
34696;BME280;20918;51.138;17.370;2023-04-24T16:38:59;99050.02;;;12.19;71.02
34696;BME280;20918;51.138;17.370;2023-04-24T16:42:12;99053.48;;;12.13;71.20
34696;BME280;20918;51.138;17.370;2023-04-24T16:45:28;99055.54;;;12.06;71.53
34696;BME280;20918;51.138;17.370;2023-04-24T16:48:32;99053.36;;;12.02;71.84
34696;BME280;20918;51.138;17.370;2023-04-24T16:51:33;99054.49;;;12.00;72.12
34696;BME280;20918;51.138;17.370;2023-04-24T16:54:34;99056.02;;;11.97;72.25
34696;BME280;20918;51.138;17.370;2023-04-24T16:57:35;99052.23;;;11.94;72.66
34696;BME280;20918;51.138;17.370;2023-04-24T17:00:38;99049.38;;;11.92;72.94
34696;BME280;20918;51.138;17.370;2023-04-24T17:03:42;99052.76;;;11.90;73.08
34696;BME280;20918;51.138;17.370;2023-04-24T17:06:46;99051.98;;;11.91;73.32
34696;BME280;20918;51.138;17.370;2023-04-24T17:09:50;99057.60;;;11.91;73.70
34696;BME280;20918;51.138;17.370;2023-04-24T17:12:51;99059.48;;;11.93;73.91
34696;BME280;20918;51.138;17.370;2023-04-24T17:16:12;99059.23;;;11.96;74.14
34696;BME280;20918;51.138;17.370;2023-04-24T17:19:13;99063.90;;;11.96;74.31
34696;BME280;20918;51.138;17.370;2023-04-24T17:22:14;99071.50;;;11.96;74.54
34696;BME280;20918;51.138;17.370;2023-04-24T17:25:19;99070.31;;;11.97;74.84
34696;BME280;20918;51.138;17.370;2023-04-24T17:28:24;99073.59;;;11.96;75.10
34696;BME280;20918;51.138;17.370;2023-04-24T17:31:26;99076.98;;;11.92;75.33
34696;BME280;20918;51.138;17.370;2023-04-24T17:34:31;99080.92;;;11.89;75.54
34696;BME280;20918;51.138;17.370;2023-04-24T17:37:32;99080.63;;;11.87;75.83